Time;durP1;ratioP1;P1;durP2;ratioP2;P2;SDS_P1;SDS_P2;PMS_P1;PMS_P2;Temp;Humidity;BMP_temperature;BMP_pressure;BME280_temperature;BME280_humidity;BME280_pressure;Samples;Min_cycle;Max_cycle;Signal;HPM_P1;HPM_P2
2022/12/10 00:00:32;;;;;;;102.28;35.17;;;;;;;-3.07;100.00;100782.88;4884947;29;20036;-76
2022/12/10 00:02:58;;;;;;;112.90;39.30;;;;;;;-3.05;100.00;100788.09;4877406;29;20068;-77
2022/12/10 00:05:23;;;;;;;104.18;38.17;;;;;;;-3.02;100.00;100788.06;4882647;29;20056;-75
2022/12/10 00:07:49;;;;;;;113.25;40.65;;;;;;;-3.16;100.00;100790.81;4872741;29;20055;-76
2022/12/10 00:10:14;;;;;;;105.63;36.90;;;;;;;-3.12;100.00;100784.66;4878189;29;20056;-76
2022/12/10 00:12:40;;;;;;;105.82;35.95;;;;;;;-3.40;100.00;100784.88;4885350;29;20067;-76
2022/12/10 00:15:06;;;;;;;103.15;35.20;;;;;;;-3.27;100.00;100783.03;4881432;29;20489;-75
2022/12/10 00:17:31;;;;;;;98.25;34.40;;;;;;;-3.16;100.00;100788.19;4879407;29;20083;-74
2022/12/10 00:19:57;;;;;;;115.78;38.03;;;;;;;-3.15;100.00;100782.09;4882413;29;20052;-76
2022/12/10 00:22:22;;;;;;;106.95;37.00;;;;;;;-3.23;100.00;100786.50;4875058;29;20049;-76
2022/12/10 00:24:47;;;;;;;108.90;41.88;;;;;;;-3.48;100.00;100786.69;4878622;29;20040;-76
2022/12/10 00:27:14;;;;;;;113.38;38.28;;;;;;;-3.53;100.00;100790.19;4873009;29;20059;-76
2022/12/10 00:29:39;;;;;;;92.25;36.38;;;;;;;-3.35;100.00;100786.59;4880137;29;20486;-76
2022/12/10 00:32:05;;;;;;;100.05;35.40;;;;;;;-3.30;100.00;100787.44;4873313;29;20173;-76
2022/12/10 00:34:31;;;;;;;112.65;36.70;;;;;;;-3.40;100.00;100787.50;4877521;29;20036;-76
2022/12/10 00:36:57;;;;;;;116.78;37.97;;;;;;;-3.41;100.00;100792.72;4877935;29;20450;-76
2022/12/10 00:39:22;;;;;;;111.20;35.58;;;;;;;-3.47;100.00;100790.13;4884398;29;20064;-78
2022/12/10 00:41:48;;;;;;;105.95;34.72;;;;;;;-3.40;100.00;100790.09;4884075;29;20829;-75
2022/12/10 00:44:15;;;;;;;99.82;32.60;;;;;;;-3.46;100.00;100797.97;4883831;29;20490;-75
2022/12/10 00:46:41;;;;;;;101.20;34.63;;;;;;;-3.45;100.00;100802.31;4874843;29;20032;-75
2022/12/10 00:49:08;;;;;;;116.40;36.40;;;;;;;-3.41;100.00;100798.81;4873032;29;20052;-76
2022/12/10 00:51:33;;;;;;;108.53;35.13;;;;;;;-3.41;100.00;100801.41;4879152;29;20037;-75
2022/12/10 00:53:59;;;;;;;104.32;35.75;;;;;;;-3.39;100.00;100797.03;4878420;29;20120;-75
2022/12/10 00:56:28;;;;;;;101.10;34.47;;;;;;;-3.44;100.00;100796.22;4876033;29;20662;-75
2022/12/10 00:58:54;;;;;;;104.75;34.53;;;;;;;-3.46;100.00;100797.97;4893779;29;20036;-75
2022/12/10 01:01:31;;;;;;;100.45;34.95;;;;;;;-3.51;100.00;100810.16;4883368;29;20428;-77
2022/12/10 01:04:03;;;;;;;103.90;34.88;;;;;;;-3.55;100.00;100816.28;4884247;29;20042;-77
2022/12/10 01:06:35;;;;;;;107.03;35.85;;;;;;;-3.56;100.00;100811.06;4878451;29;20092;-76
2022/12/10 01:09:04;;;;;;;105.57;36.50;;;;;;;-3.51;100.00;100815.38;4887464;29;20033;-75
2022/12/10 01:11:33;;;;;;;105.07;34.13;;;;;;;-3.47;100.00;100811.84;4877093;29;20060;-76
2022/12/10 01:13:59;;;;;;;103.40;35.50;;;;;;;-3.51;100.00;100812.78;4886861;29;20067;-76
2022/12/10 01:16:25;;;;;;;106.90;34.88;;;;;;;-3.39;100.00;100809.22;4885906;29;20109;-75
2022/12/10 01:18:58;;;;;;;105.65;35.13;;;;;;;-3.34;100.00;100806.56;4882304;29;20040;-76
2022/12/10 01:21:24;;;;;;;106.20;36.58;;;;;;;-3.27;100.00;100818.69;4873370;29;20040;-76
2022/12/10 01:23:51;;;;;;;104.13;35.83;;;;;;;-3.27;100.00;100818.69;4870618;29;20025;-76
2022/12/10 01:26:20;;;;;;;99.55;33.33;;;;;;;-3.26;100.00;100812.63;4879537;29;20037;-75
2022/12/10 01:28:46;;;;;;;113.30;36.13;;;;;;;-3.31;100.00;100823.06;4886556;29;20056;-76
2022/12/10 01:31:20;;;;;;;104.18;35.10;;;;;;;-3.38;100.00;100818.75;4869787;29;20079;-76
2022/12/10 01:33:46;;;;;;;97.57;33.40;;;;;;;-3.36;100.00;100821.34;4883113;29;20071;-77
2022/12/10 01:36:24;;;;;;;106.18;33.50;;;;;;;-3.25;100.00;100820.41;4874410;29;21010;-77
2022/12/10 01:38:50;;;;;;;96.07;33.42;;;;;;;-3.27;100.00;100819.53;4881106;29;20214;-77
2022/12/10 01:41:18;;;;;;;105.03;32.20;;;;;;;-3.39;100.00;100827.47;4878158;29;20049;-76
2022/12/10 01:43:57;;;;;;;103.43;35.00;;;;;;;-3.31;100.00;100830.00;4884429;29;20100;-75
2022/12/10 01:46:28;;;;;;;95.65;32.55;;;;;;;-3.38;100.00;100827.44;4880838;29;20049;-77
2022/12/10 01:48:56;;;;;;;98.95;33.33;;;;;;;-3.46;100.00;100823.19;4872478;29;20562;-76
2022/12/10 01:51:24;;;;;;;105.70;33.30;;;;;;;-3.35;100.00;100826.56;4875118;29;20048;-75
2022/12/10 01:53:50;;;;;;;108.35;34.67;;;;;;;-3.41;100.00;100826.63;4882135;29;20047;-77
2022/12/10 01:56:18;;;;;;;108.07;33.90;;;;;;;-3.60;100.00;100832.81;4877608;29;20047;-74
2022/12/10 01:58:44;;;;;;;115.97;35.70;;;;;;;-3.55;100.00;100829.31;4879317;29;20071;-74
2022/12/10 02:01:25;;;;;;;117.85;37.33;;;;;;;-3.48;100.00;100830.97;4881837;29;20456;-75
2022/12/10 02:03:59;;;;;;;123.88;37.42;;;;;;;-3.42;100.00;100828.31;4879829;29;20045;-76
2022/12/10 02:06:38;;;;;;;92.95;34.10;;;;;;;-3.55;100.00;100836.25;4871279;29;20069;-76
2022/12/10 02:09:20;;;;;;;97.90;32.30;;;;;;;-3.51;100.00;100837.97;4896190;29;20144;-77
2022/12/10 02:12:06;;;;;;;107.43;35.63;;;;;;;-3.48;100.00;100840.53;4881866;29;20056;-76
2022/12/10 02:14:45;;;;;;;116.70;35.35;;;;;;;-3.40;100.00;100839.63;4879947;29;20482;-76
2022/12/10 02:17:19;;;;;;;111.85;35.25;;;;;;;-3.43;100.00;100833.56;4872855;29;20049;-75
2022/12/10 02:19:53;;;;;;;101.07;36.05;;;;;;;-3.51;100.00;100831.03;4881295;29;20474;-75
2022/12/10 02:22:22;;;;;;;107.43;35.58;;;;;;;-3.48;100.00;100824.91;4877141;29;20040;-75
2022/12/10 02:24:51;;;;;;;100.97;33.88;;;;;;;-3.52;100.00;100831.00;4874930;29;20037;-76
2022/12/10 02:28:02;;;;;;;116.18;35.15;;;;;;;-3.72;100.00;100831.13;4882126;29;20044;-74
2022/12/10 02:30:31;;;;;;;97.10;33.83;;;;;;;-3.57;100.00;100830.16;4824291;29;20053;-74
2022/12/10 02:32:59;;;;;;;102.65;32.95;;;;;;;-3.61;100.00;100823.22;4813943;29;20050;-72
2022/12/10 02:35:30;;;;;;;108.90;34.50;;;;;;;-3.63;100.00;100823.25;4812406;29;20062;-75
2022/12/10 02:38:03;;;;;;;104.20;34.42;;;;;;;-3.60;100.00;100830.22;4812189;29;20054;-76
2022/12/10 02:40:36;;;;;;;108.93;34.17;;;;;;;-3.55;100.00;100826.69;4811053;29;20129;-75
2022/12/10 02:43:07;;;;;;;105.30;35.15;;;;;;;-3.50;100.00;100830.13;4818101;29;20042;-76
2022/12/10 02:45:34;;;;;;;113.72;35.58;;;;;;;-3.56;100.00;100832.78;4808802;29;20282;-76
2022/12/10 02:48:02;;;;;;;104.88;34.10;;;;;;;-3.53;100.00;100824.94;4824236;29;20074;-76
2022/12/10 02:50:34;;;;;;;111.63;34.85;;;;;;;-3.45;100.00;100827.50;4811068;29;20065;-74
2022/12/10 02:53:01;;;;;;;110.88;36.50;;;;;;;-3.39;100.00;100830.94;4814829;29;20232;-75
2022/12/10 02:55:37;;;;;;;117.00;37.20;;;;;;;-3.31;100.00;100832.59;4816703;29;20934;-75
2022/12/10 02:58:21;;;;;;;113.60;36.75;;;;;;;-3.34;100.00;100828.28;4803834;29;20058;-75
2022/12/10 03:01:05;;;;;;;100.30;35.20;;;;;;;-3.35;100.00;100825.72;4805232;29;20137;-74
2022/12/10 03:03:47;;;;;;;115.05;34.38;;;;;;;-3.52;100.00;100823.19;4833842;29;20056;-75
2022/12/10 03:06:26;;;;;;;113.07;34.45;;;;;;;-3.43;100.00;100830.94;4876793;29;20037;-75
2022/12/10 03:09:00;;;;;;;103.90;32.90;;;;;;;-3.41;100.00;100824.00;4878509;29;20048;-75
2022/12/10 03:11:27;;;;;;;126.32;37.53;;;;;;;-3.43;100.00;100825.75;4880691;29;20741;-77
2022/12/10 03:14:03;;;;;;;123.50;36.63;;;;;;;-3.45;100.00;100823.16;4884227;29;20040;-76
2022/12/10 03:16:34;;;;;;;115.22;35.70;;;;;;;-3.50;100.00;100817.09;4884668;29;20401;-76
2022/12/10 03:19:09;;;;;;;105.78;33.17;;;;;;;-3.52;100.00;100824.06;4885196;29;20044;-76
2022/12/10 03:21:37;;;;;;;99.53;33.22;;;;;;;-3.55;100.00;100818.88;4882729;29;20048;-75
2022/12/10 03:24:09;;;;;;;110.30;36.70;;;;;;;-3.51;100.00;100822.34;4881388;29;20048;-76
2022/12/10 03:26:36;;;;;;;109.07;34.25;;;;;;;-3.56;100.00;100824.97;4880138;29;20043;-75
2022/12/10 03:29:06;;;;;;;98.93;33.33;;;;;;;-3.58;100.00;100812.81;4880912;29;20076;-74
2022/12/10 03:31:34;;;;;;;107.13;34.58;;;;;;;-3.76;100.00;100816.41;4884822;29;20045;-72
2022/12/10 03:34:01;;;;;;;108.70;35.30;;;;;;;-3.69;100.00;100821.56;4881897;29;20048;-74
2022/12/10 03:36:28;;;;;;;126.32;36.30;;;;;;;-3.67;100.00;100819.78;4878897;29;20041;-76
2022/12/10 03:38:54;;;;;;;114.50;36.60;;;;;;;-3.70;100.00;100825.03;4888451;29;20040;-76
2022/12/10 03:41:19;;;;;;;106.72;35.42;;;;;;;-3.80;100.00;100828.56;4884557;29;20545;-75
2022/12/10 03:43:53;;;;;;;114.00;36.13;;;;;;;-3.81;100.00;100825.97;4883594;29;20033;-75
2022/12/10 03:46:19;;;;;;;115.60;35.63;;;;;;;-3.68;100.00;100833.69;4886388;29;20056;-76
2022/12/10 03:48:45;;;;;;;123.40;36.42;;;;;;;-3.62;100.00;100834.53;4874796;29;20044;-76
2022/12/10 03:51:10;;;;;;;126.18;36.13;;;;;;;-3.70;100.00;100825.03;4886347;29;20048;-76
2022/12/10 03:53:36;;;;;;;107.22;36.30;;;;;;;-3.70;100.00;100830.25;4883334;29;20088;-75
2022/12/10 03:56:01;;;;;;;110.38;34.95;;;;;;;-3.72;100.00;100829.38;4879766;29;20048;-75
2022/12/10 03:58:26;;;;;;;112.10;36.83;;;;;;;-3.82;100.00;100822.47;4878660;29;20064;-76
2022/12/10 04:00:52;;;;;;;112.28;36.95;;;;;;;-3.82;100.00;100825.09;4881101;29;20140;-75
2022/12/10 04:03:17;;;;;;;117.90;38.55;;;;;;;-3.91;100.00;100825.16;4884998;29;20040;-74
2022/12/10 04:05:43;;;;;;;115.50;38.35;;;;;;;-3.91;100.00;100820.81;4879371;29;20045;-74
2022/12/10 04:08:08;;;;;;;116.95;35.50;;;;;;;-3.88;100.00;100821.66;4886060;29;20068;-76
2022/12/10 04:10:38;;;;;;;107.80;35.65;;;;;;;-3.86;100.00;100828.59;4880383;29;20053;-75
2022/12/10 04:18:32;;;;;;;129.95;37.63;;;;;;;-3.91;100.00;100831.22;4879735;29;20192;-76
2022/12/10 04:29:11;;;;;;;121.95;38.65;;;;;;;-4.08;100.00;100834.75;4882945;29;20124;-76
2022/12/10 04:31:36;;;;;;;127.82;36.47;;;;;;;-4.08;100.00;100839.97;4877559;29;20037;-77
2022/12/10 04:34:02;;;;;;;111.05;35.70;;;;;;;-4.03;100.00;100843.41;4877395;29;20696;-75
2022/12/10 04:36:27;;;;;;;129.35;39.47;;;;;;;-3.97;100.00;100836.44;4877379;29;20055;-76
2022/12/10 04:38:53;;;;;;;109.90;36.00;;;;;;;-3.92;100.00;100837.31;4880522;29;20041;-75
2022/12/10 04:41:18;;;;;;;119.80;35.72;;;;;;;-3.97;100.00;100835.56;4876981;29;20037;-75
2022/12/10 04:43:44;;;;;;;110.82;36.25;;;;;;;-4.04;100.00;100836.47;4877668;29;20036;-75
2022/12/10 04:46:10;;;;;;;109.45;35.58;;;;;;;-3.91;100.00;100833.84;4886264;29;20801;-75
2022/12/10 04:48:35;;;;;;;112.88;37.33;;;;;;;-3.92;100.00;100836.41;4884685;29;20055;-75
2022/12/10 04:51:01;;;;;;;130.10;37.97;;;;;;;-4.02;100.00;100838.19;4888737;29;20864;-75
2022/12/10 04:53:27;;;;;;;119.60;36.13;;;;;;;-3.99;100.00;100847.75;4884416;29;20083;-76
2022/12/10 04:55:52;;;;;;;122.65;35.45;;;;;;;-4.09;100.00;100852.13;4878696;29;20128;-74
2022/12/10 04:58:19;;;;;;;130.32;39.53;;;;;;;-4.11;100.00;100846.06;4878651;29;20040;-75
2022/12/10 05:00:45;;;;;;;120.93;39.15;;;;;;;-4.03;100.00;100853.84;4879092;29;20100;-77
2022/12/10 05:03:10;;;;;;;129.52;39.85;;;;;;;-4.07;100.00;100847.75;4881262;29;20048;-75
2022/12/10 05:05:36;;;;;;;130.90;38.63;;;;;;;-4.02;100.00;100851.22;4878836;29;20048;-75
2022/12/10 05:08:01;;;;;;;127.70;37.78;;;;;;;-4.05;100.00;100855.59;4878806;29;20048;-74
2022/12/10 05:10:27;;;;;;;124.97;39.80;;;;;;;-4.09;100.00;100856.47;4881132;29;20060;-73
2022/12/10 05:12:52;;;;;;;125.30;39.15;;;;;;;-4.13;100.00;100855.59;4884844;29;20048;-75
2022/12/10 05:15:18;;;;;;;121.97;40.83;;;;;;;-4.18;100.00;100860.81;4882265;29;20033;-75
2022/12/10 05:17:44;;;;;;;120.45;36.85;;;;;;;-4.19;100.00;100855.63;4886774;29;20075;-77
2022/12/10 05:20:10;;;;;;;118.85;37.92;;;;;;;-4.13;100.00;100855.59;4878244;29;20040;-74
2022/12/10 05:25:19;;;;;;;129.10;41.03;;;;;;;-4.13;100.00;100857.34;4887943;29;20041;-74
2022/12/10 05:27:45;;;;;;;144.63;42.90;;;;;;;-4.10;100.00;100858.22;4888809;29;20052;-76
2022/12/10 05:30:11;;;;;;;131.02;40.20;;;;;;;-4.13;100.00;100852.13;4881560;29;20057;-75
2022/12/10 05:32:37;;;;;;;140.95;42.50;;;;;;;-4.18;100.00;100855.63;4879921;29;20065;-75
2022/12/10 05:35:03;;;;;;;129.55;40.50;;;;;;;-4.18;100.00;100855.63;4885975;29;20080;-75
2022/12/10 05:37:29;;;;;;;130.95;42.60;;;;;;;-4.18;100.00;100852.16;4883977;29;20045;-77
2022/12/10 05:39:55;;;;;;;139.82;41.92;;;;;;;-4.19;100.00;100850.41;4888417;29;20044;-76
2022/12/10 05:42:21;;;;;;;123.35;38.35;;;;;;;-4.09;100.00;100846.06;4885151;29;20755;-75
2022/12/10 05:44:48;;;;;;;122.70;39.72;;;;;;;-4.13;100.00;100845.19;4879356;29;20048;-76
2022/12/10 05:47:14;;;;;;;130.93;41.55;;;;;;;-4.24;100.00;100850.44;4881086;29;20041;-73
2022/12/10 05:49:39;;;;;;;128.23;41.08;;;;;;;-4.19;100.00;100847.81;4882400;29;20068;-76
2022/12/10 05:52:05;;;;;;;121.07;40.20;;;;;;;-4.18;100.00;100853.00;4882277;29;20130;-77
2022/12/10 05:54:30;;;;;;;136.93;42.53;;;;;;;-4.26;100.00;100851.31;4889059;29;20036;-76
2022/12/10 05:56:56;;;;;;;138.60;40.65;;;;;;;-4.19;100.00;100858.22;4878933;29;20056;-75
2022/12/10 05:59:24;;;;;;;144.73;43.08;;;;;;;-4.07;100.00;100865.97;4883348;29;20075;-77
2022/12/10 06:01:50;;;;;;;154.32;45.97;;;;;;;-3.93;100.00;100853.78;4880421;29;20167;-76
2022/12/10 06:04:15;;;;;;;166.88;47.55;;;;;;;-3.76;100.00;100851.13;4882206;29;20132;-76
2022/12/10 06:06:41;;;;;;;188.68;51.00;;;;;;;-3.61;100.00;100854.50;4879552;29;20116;-76
2022/12/10 06:09:11;;;;;;;182.82;51.30;;;;;;;-3.55;100.00;100855.34;4879151;29;20133;-75
2022/12/10 06:11:37;;;;;;;193.07;52.30;;;;;;;-3.42;100.00;100851.78;4876321;29;20124;-75
2022/12/10 06:14:02;;;;;;;223.90;58.22;;;;;;;-3.33;100.00;100857.84;4881534;29;20544;-78
2022/12/10 06:16:28;;;;;;;231.13;60.50;;;;;;;-3.26;100.00;100860.41;4879896;29;20037;-76
2022/12/10 06:18:54;;;;;;;287.27;61.53;;;;;;;-3.24;100.00;100852.56;4882320;29;20041;-76
2022/12/10 06:21:23;;;;;;;243.75;57.28;;;;;;;-3.16;100.00;100856.00;4881323;29;20072;-73
2022/12/10 06:23:51;;;;;;;280.45;58.88;;;;;;;-3.19;100.00;100843.81;4883217;29;20044;-75
2022/12/10 06:26:25;;;;;;;243.10;60.50;;;;;;;-3.17;100.00;100854.22;4883451;29;20047;-75
2022/12/10 06:28:52;;;;;;;268.60;62.65;;;;;;;-3.17;100.00;100855.09;4886566;29;20044;-77
2022/12/10 06:31:18;;;;;;;263.20;60.53;;;;;;;-3.10;100.00;100862.91;4883631;29;20029;-77
2022/12/10 06:33:43;;;;;;;252.55;59.45;;;;;;;-3.05;100.00;100859.38;4883458;29;20589;-75
2022/12/10 06:36:11;;;;;;;292.73;65.35;;;;;;;-3.05;100.00;100862.00;4880172;29;20037;-73
2022/12/10 06:38:37;;;;;;;231.13;58.22;;;;;;;-2.99;100.00;100864.53;4877914;29;20607;-75
2022/12/10 06:41:09;;;;;;;250.95;58.22;;;;;;;-2.97;100.00;100873.22;4881598;29;20045;-75
2022/12/10 06:43:35;;;;;;;295.38;58.97;;;;;;;-3.11;100.00;100875.06;4873224;29;20071;-76
2022/12/10 06:46:08;;;;;;;308.65;61.30;;;;;;;-3.04;100.00;100881.97;4884775;29;20040;-77
2022/12/10 06:48:34;;;;;;;284.40;58.45;;;;;;;-3.03;100.00;100888.03;4883727;29;20033;-76
2022/12/10 06:50:59;;;;;;;309.05;59.22;;;;;;;-3.02;100.00;100884.56;4881937;29;20041;-76
2022/12/10 06:53:25;;;;;;;232.82;53.17;;;;;;;-2.91;100.00;100886.22;4881293;29;20041;-74
2022/12/10 06:55:50;;;;;;;297.15;61.88;;;;;;;-2.95;100.00;100894.09;4883077;29;20055;-75
2022/12/10 06:58:19;;;;;;;244.13;58.95;;;;;;;-2.92;100.00;100892.31;4881483;29;20041;-77
2022/12/10 07:00:44;;;;;;;249.88;58.17;;;;;;;-2.87;100.00;100887.06;4885727;29;20048;-76
2022/12/10 07:03:10;;;;;;;393.02;74.53;;;;;;;-2.93;100.00;100889.72;4886103;29;20052;-77
2022/12/10 07:05:35;;;;;;;298.17;61.30;;;;;;;-2.87;100.00;100890.53;4876913;29;20037;-76
2022/12/10 07:08:00;;;;;;;242.27;64.72;;;;;;;-2.80;100.00;100891.34;4883462;29;20262;-77
2022/12/10 07:10:26;;;;;;;259.13;60.75;;;;;;;-2.74;100.00;100895.66;4878379;29;20061;-74
2022/12/10 07:12:51;;;;;;;261.63;60.03;;;;;;;-2.74;100.00;100899.13;4896981;29;20048;-76
2022/12/10 07:15:17;;;;;;;250.38;60.97;;;;;;;-2.71;100.00;100895.63;4880787;29;20044;-76
2022/12/10 07:17:42;;;;;;;259.13;62.15;;;;;;;-2.73;100.00;100902.59;4884728;29;20797;-74
2022/12/10 07:20:08;;;;;;;293.88;59.22;;;;;;;-2.73;100.00;100910.44;4883518;29;20128;-74
2022/12/10 07:22:43;;;;;;;314.20;60.60;;;;;;;-2.79;100.00;100910.47;4883762;29;20041;-76
2022/12/10 07:25:08;;;;;;;273.50;58.10;;;;;;;-2.85;100.00;100921.84;4883402;29;20562;-76
2022/12/10 07:27:34;;;;;;;250.18;58.80;;;;;;;-2.80;100.00;100922.66;4877820;29;20073;-76
2022/12/10 07:29:59;;;;;;;317.13;64.53;;;;;;;-2.77;100.00;100924.38;4876442;29;20060;-76
2022/12/10 07:32:27;;;;;;;274.45;60.65;;;;;;;-2.82;100.00;100929.63;4875057;29;20412;-76
2022/12/10 07:34:52;;;;;;;257.30;57.63;;;;;;;-2.81;100.00;100926.16;4884120;29;20044;-76
2022/12/10 07:37:18;;;;;;;238.60;57.53;;;;;;;-2.80;100.00;100933.09;4886116;29;20144;-76
2022/12/10 07:39:43;;;;;;;203.05;57.50;;;;;;;-2.72;100.00;100933.03;4879157;29;20045;-76
2022/12/10 07:42:09;;;;;;;250.95;54.22;;;;;;;-2.71;100.00;100940.88;4876998;29;20037;-76
2022/12/10 07:44:37;;;;;;;238.85;54.53;;;;;;;-2.80;100.00;100940.06;4884118;29;20033;-76
2022/12/10 07:47:05;;;;;;;268.67;55.85;;;;;;;-2.74;100.00;100937.41;4885082;29;20565;-77
2022/12/10 07:49:30;;;;;;;207.40;55.38;;;;;;;-2.73;100.00;100942.59;4880084;29;20068;-75
2022/12/10 07:51:56;;;;;;;219.90;54.97;;;;;;;-2.71;100.00;100935.66;4884744;29;20235;-75
2022/12/10 07:54:21;;;;;;;237.80;52.88;;;;;;;-2.68;100.00;100934.75;4884848;29;20128;-73
2022/12/10 07:56:47;;;;;;;214.73;52.10;;;;;;;-2.64;100.00;100941.69;4883636;29;20092;-74
2022/12/10 07:59:12;;;;;;;257.15;56.42;;;;;;;-2.66;100.00;100946.03;4877179;29;20104;-73
2022/12/10 08:01:38;;;;;;;207.15;51.63;;;;;;;-2.62;100.00;100943.38;4881819;29;20032;-76
2022/12/10 08:04:04;;;;;;;224.80;54.70;;;;;;;-2.57;100.00;100947.72;4877163;29;20440;-76
2022/12/10 08:06:29;;;;;;;213.18;52.85;;;;;;;-2.55;100.00;100946.84;4883379;29;20040;-76
2022/12/10 08:08:57;;;;;;;258.70;55.72;;;;;;;-2.59;100.00;100952.94;4882439;29;20072;-76
2022/12/10 08:11:23;;;;;;;230.43;54.75;;;;;;;-2.60;100.00;100951.22;4882362;29;20683;-75
2022/12/10 08:13:49;;;;;;;252.13;53.05;;;;;;;-2.63;100.00;100964.28;4878362;29;20057;-77
2022/12/10 08:16:20;;;;;;;205.45;50.38;;;;;;;-2.70;100.00;100971.31;4881342;29;20032;-72
2022/12/10 08:18:45;;;;;;;218.57;51.22;;;;;;;-2.71;100.00;100966.97;4885183;29;20052;-75
2022/12/10 08:21:14;;;;;;;202.63;50.45;;;;;;;-2.65;100.00;100972.13;4882983;29;20169;-77
2022/12/10 08:23:40;;;;;;;223.52;51.90;;;;;;;-2.60;100.00;100974.72;4878450;29;20116;-77
2022/12/10 08:26:11;;;;;;;314.20;56.17;;;;;;;-2.77;100.00;100974.81;4882472;29;20044;-76
2022/12/10 08:28:36;;;;;;;251.93;52.67;;;;;;;-2.77;100.00;100974.81;4878856;29;20041;-76
2022/12/10 08:31:03;;;;;;;222.25;46.40;;;;;;;-2.69;100.00;100975.63;4879266;29;20040;-75
2022/12/10 08:33:29;;;;;;;241.32;48.50;;;;;;;-2.68;100.00;100985.19;4875621;29;20033;-77
2022/12/10 08:36:04;;;;;;;234.20;53.00;;;;;;;-2.61;100.00;100984.28;4880161;29;20036;-73
2022/12/10 08:38:30;;;;;;;275.27;58.08;;;;;;;-2.56;100.00;100986.88;4875218;29;20052;-76
2022/12/10 08:40:55;;;;;;;238.85;53.80;;;;;;;-2.49;100.00;100985.06;4880626;29;20060;-73
2022/12/10 08:43:24;;;;;;;269.92;56.35;;;;;;;-2.48;100.00;100981.56;4880212;29;20202;-73
2022/12/10 08:45:54;;;;;;;175.00;39.80;;;;;;;-2.53;100.00;100988.56;4883096;29;20103;-76
2022/12/10 08:48:19;;;;;;;262.85;52.22;;;;;;;-2.53;100.00;100992.06;4883182;29;20083;-76
2022/12/10 08:50:45;;;;;;;246.90;50.95;;;;;;;-2.53;100.00;100993.78;4883816;29;20735;-76
2022/12/10 08:53:10;;;;;;;229.00;50.75;;;;;;;-2.42;100.00;101005.88;4879086;29;20053;-74
2022/12/10 08:55:39;;;;;;;226.18;51.67;;;;;;;-2.33;100.00;101007.56;4877548;29;20036;-74
2022/12/10 08:58:05;;;;;;;249.82;52.50;;;;;;;-2.30;100.00;101007.56;4877987;29;20048;-75
2022/12/10 09:00:31;;;;;;;252.10;54.65;;;;;;;-2.19;100.00;101004.84;4875499;29;20051;-77
2022/12/10 09:02:56;;;;;;;230.00;53.30;;;;;;;-2.24;100.00;101004.03;4883552;29;20049;-74
2022/12/10 09:05:22;;;;;;;270.40;55.22;;;;;;;-2.29;100.00;100998.84;4879953;29;20036;-72
2022/12/10 09:07:48;;;;;;;221.85;52.53;;;;;;;-2.22;100.00;100987.44;4877014;29;20033;-75
2022/12/10 09:10:13;;;;;;;253.90;55.75;;;;;;;-2.23;100.00;101001.38;4876116;29;20040;-74
2022/12/10 09:12:38;;;;;;;233.05;51.90;;;;;;;-2.03;100.00;101000.34;4875518;29;20048;-77
2022/12/10 09:15:06;;;;;;;254.68;54.47;;;;;;;-2.05;100.00;100999.50;4878284;29;20075;-74
2022/12/10 09:17:31;;;;;;;252.65;54.25;;;;;;;-2.02;100.00;101007.31;4876444;29;20968;-76
2022/12/10 09:19:56;;;;;;;266.98;55.42;;;;;;;-1.95;100.00;100996.78;4858426;29;20178;-76
2022/12/10 09:22:22;;;;;;;235.60;54.20;;;;;;;-1.93;100.00;101004.59;4878953;29;20044;-76
2022/12/10 09:24:47;;;;;;;256.48;55.10;;;;;;;-1.82;100.00;101005.34;4881799;29;20087;-75
2022/12/10 09:27:13;;;;;;;303.55;59.33;;;;;;;-1.85;100.00;101011.50;4875541;29;20406;-74
2022/12/10 09:29:38;;;;;;;285.25;61.28;;;;;;;-1.85;100.00;101010.63;4880574;29;20076;-75
2022/12/10 09:32:04;;;;;;;262.85;57.80;;;;;;;-1.83;100.00;101007.09;4875982;29;20560;-73
2022/12/10 09:34:29;;;;;;;264.20;55.85;;;;;;;-1.86;100.00;101009.78;4879826;29;20435;-76
2022/12/10 09:36:55;;;;;;;227.35;54.60;;;;;;;-1.73;100.00;101013.13;4880476;29;20028;-75
2022/12/10 09:39:20;;;;;;;237.55;55.20;;;;;;;-1.66;100.00;101006.06;4872608;29;20100;-76
2022/12/10 09:42:26;;;;;;;258.27;58.47;;;;;;;-1.59;100.00;101006.00;4867865;29;20133;-75
2022/12/10 09:45:23;;;;;;;237.30;58.17;;;;;;;-1.57;100.00;101013.81;4874258;29;20075;-73
2022/12/10 09:47:54;;;;;;;233.45;53.95;;;;;;;-1.52;100.00;101011.16;4879914;29;20485;-77
2022/12/10 09:50:30;;;;;;;247.15;56.25;;;;;;;-1.57;100.00;101009.44;4878412;29;20485;-76
2022/12/10 09:52:59;;;;;;;232.60;53.30;;;;;;;-1.52;100.00;101013.75;4876060;29;20722;-77
2022/12/10 09:55:38;;;;;;;265.45;61.00;;;;;;;-1.57;100.00;101017.28;4880351;29;20212;-79
2022/12/10 09:58:08;;;;;;;200.77;50.50;;;;;;;-1.45;100.00;101018.06;4892275;29;20055;-73
2022/12/10 10:00:41;;;;;;;231.68;53.67;;;;;;;-1.48;100.00;101016.31;4878808;29;20048;-75
2022/12/10 10:03:14;;;;;;;214.82;53.03;;;;;;;-1.49;100.00;101013.75;4876075;29;20731;-77
2022/12/10 10:05:45;;;;;;;202.77;51.63;;;;;;;-1.52;100.00;101006.78;4880348;29;20071;-76
2022/12/10 10:08:29;;;;;;;234.38;55.78;;;;;;;-1.51;100.00;101005.88;4875605;29;20044;-76
2022/12/10 10:10:56;;;;;;;235.65;55.80;;;;;;;-1.39;100.00;101016.22;4880948;29;20055;-77
2022/12/10 10:13:41;;;;;;;245.10;58.53;;;;;;;-1.43;100.00;101011.06;4877052;29;20759;-74
2022/12/10 10:16:18;;;;;;;226.05;55.80;;;;;;;-1.53;100.00;101010.28;4883298;29;20045;-77
2022/12/10 10:19:26;;;;;;;213.35;53.10;;;;;;;-1.39;100.00;101013.63;4882309;29;20039;-78
2022/12/10 10:21:52;;;;;;;206.40;51.13;;;;;;;-1.26;100.00;101011.69;4883737;29;20056;-74
2022/12/10 10:24:21;;;;;;;204.32;50.70;;;;;;;-1.36;100.00;101016.19;4882654;29;20048;-74
2022/12/10 10:26:47;;;;;;;206.00;54.38;;;;;;;-1.29;100.00;101022.22;4886703;29;20060;-76
2022/12/10 10:29:16;;;;;;;205.48;50.40;;;;;;;-1.34;100.00;101021.41;4882665;29;20040;-72
2022/12/10 10:31:42;;;;;;;198.68;52.60;;;;;;;-1.28;100.00;101020.47;4878788;29;20327;-75
2022/12/10 10:34:18;;;;;;;196.43;50.95;;;;;;;-1.28;100.00;101020.47;4882582;29;20071;-76
2022/12/10 10:36:45;;;;;;;195.35;51.20;;;;;;;-1.24;100.00;101027.41;4888146;29;20131;-75
2022/12/10 10:39:16;;;;;;;196.23;47.00;;;;;;;-1.17;100.00;101024.69;4884189;29;20051;-75
2022/12/10 10:41:42;;;;;;;171.10;45.75;;;;;;;-1.21;100.00;101022.97;4889497;29;20052;-75
2022/12/10 10:44:20;;;;;;;191.43;46.20;;;;;;;-1.09;100.00;101027.22;4884455;29;20041;-74
2022/12/10 10:46:48;;;;;;;168.88;43.10;;;;;;;-1.12;100.00;101024.63;4889060;29;20043;-76
2022/12/10 10:49:31;;;;;;;170.98;45.03;;;;;;;-1.05;100.00;101018.44;4888490;29;20569;-77
2022/12/10 10:52:05;;;;;;;176.70;46.20;;;;;;;-1.11;100.00;101026.34;4888622;29;20505;-74
2022/12/10 10:54:37;;;;;;;174.77;45.42;;;;;;;-1.06;100.00;101027.16;4887653;29;20060;-77
2022/12/10 10:57:10;;;;;;;156.55;40.97;;;;;;;-1.08;100.00;101029.81;4885519;29;20068;-76
2022/12/10 10:59:38;;;;;;;151.07;39.65;;;;;;;-0.97;100.00;101026.19;4888662;29;20638;-76
2022/12/10 11:02:17;;;;;;;148.32;40.05;;;;;;;-1.00;100.00;101020.97;4890688;29;20041;-75
2022/12/10 11:04:49;;;;;;;142.63;37.47;;;;;;;-0.95;100.00;101022.66;4879559;29;20080;-76
2022/12/10 11:07:23;;;;;;;144.38;40.58;;;;;;;-0.96;100.00;101020.91;4876635;29;20470;-73
2022/12/10 11:09:50;;;;;;;152.88;40.20;;;;;;;-0.91;100.00;101024.34;4876764;29;20132;-74
2022/12/10 11:12:41;;;;;;;140.73;38.00;;;;;;;-0.93;100.00;101018.28;4883414;29;20087;-76
2022/12/10 11:15:22;;;;;;;156.73;40.30;;;;;;;-0.85;100.00;101018.19;4882669;29;20056;-78
2022/12/10 11:17:50;;;;;;;138.90;40.00;;;;;;;-0.86;100.00;101014.66;4879467;29;20029;-77